Time;durP1;ratioP1;P1;durP2;ratioP2;P2;SDS_P1;SDS_P2;PMS_P1;PMS_P2;Temp;Humidity;BMP_temperature;BMP_pressure;BME280_temperature;BME280_humidity;BME280_pressure;Samples;Min_cycle;Max_cycle;Signal;HPM_P1;HPM_P2
2021/01/02 00:02:36;;;;;;;395.27;111.47;;;-0.80;99.90;;;;;;4965862;28;20195;-88
2021/01/02 00:05:06;;;;;;;157.33;50.27;;;-0.90;99.90;;;;;;4934979;29;20241;-89
2021/01/02 00:08:00;;;;;;;97.60;37.60;;;-0.80;99.90;;;;;;4935540;29;20185;-89
2021/01/02 00:11:00;;;;;;;88.50;28.60;;;-0.90;99.90;;;;;;4951450;28;20193;-90
2021/01/02 00:13:32;;;;;;;84.97;29.67;;;-1.10;99.90;;;;;;4897600;29;20229;-89
2021/01/02 00:16:07;;;;;;;70.37;26.77;;;-1.10;99.90;;;;;;4921969;29;20278;-88
2021/01/02 00:18:36;;;;;;;95.27;30.60;;;-1.10;99.90;;;;;;4938784;29;20185;-89
2021/01/02 00:21:14;;;;;;;85.20;24.87;;;0.20;99.90;;;;;;4938353;29;20648;-89
2021/01/02 00:23:47;;;;;;;84.20;25.53;;;-1.10;99.90;;;;;;4938557;29;20218;-90
2021/01/02 00:26:44;;;;;;;79.33;25.20;;;-1.10;99.90;;;;;;4938364;29;20709;-89
2021/01/02 00:29:24;;;;;;;86.60;21.00;;;-1.10;99.90;;;;;;4914978;29;20224;-88
2021/01/02 00:32:37;;;;;;;90.93;23.97;;;-1.00;99.90;;;;;;4921803;29;20188;-89
2021/01/02 00:35:11;;;;;;;107.37;23.73;;;-1.00;99.90;;;;;;4938336;29;20186;-89
2021/01/02 00:37:43;;;;;;;104.53;24.80;;;-1.00;99.90;;;;;;4938599;29;20219;-89
2021/01/02 00:40:09;;;;;;;83.53;27.07;;;-1.10;99.90;;;;;;4938407;29;20270;-89
2021/01/02 00:42:40;;;;;;;93.93;23.90;;;-1.10;99.90;;;;;;4921384;29;20259;-89
2021/01/02 00:45:09;;;;;;;90.90;27.47;;;-1.10;99.90;;;;;;4937660;29;20227;-89
2021/01/02 00:47:37;;;;;;;93.20;25.63;;;-1.20;99.90;;;;;;4921494;29;20181;-89
2021/01/02 00:50:04;;;;;;;102.57;25.23;;;-1.20;99.90;;;;;;4938461;29;20184;-88
2021/01/02 00:52:45;;;;;;;96.33;24.30;;;-1.20;99.90;;;;;;4920980;29;20184;-89
2021/01/02 00:55:31;;;;;;;122.40;25.63;;;-1.10;99.90;;;;;;4920827;29;20201;-89
2021/01/02 00:58:18;;;;;;;110.40;24.90;;;-1.10;99.90;;;;;;4938180;29;20712;-89
2021/01/02 01:00:44;;;;;;;92.57;25.40;;;-1.10;99.90;;;;;;4938348;29;20221;-89
2021/01/02 01:03:21;;;;;;;105.97;26.67;;;-0.50;99.90;;;;;;4937660;29;20201;-89
2021/01/02 01:05:47;;;;;;;77.97;25.07;;;-1.20;99.90;;;;;;4937741;29;20309;-88
2021/01/02 01:08:17;;;;;;;92.07;23.23;;;-1.00;99.90;;;;;;4937564;29;20251;-89
2021/01/02 01:10:44;;;;;;;83.17;24.30;;;0.10;99.90;;;;;;4938053;29;20645;-88
2021/01/02 01:13:21;;;;;;;76.80;21.80;;;-0.50;99.90;;;;;;4920786;29;20182;-89
2021/01/02 01:15:47;;;;;;;113.00;47.87;;;-0.90;99.90;;;;;;4921392;29;20199;-88
2021/01/02 01:18:39;;;;;;;113.37;41.77;;;-0.70;99.90;;;;;;4937213;29;20185;-89
2021/01/02 01:21:09;;;;;;;77.37;26.30;;;-0.90;99.90;;;;;;4920469;29;20591;-88
2021/01/02 01:23:53;;;;;;;85.37;34.23;;;0.00;99.90;;;;;;4937183;29;20223;-89
2021/01/02 01:26:38;;;;;;;86.40;36.87;;;-0.90;99.90;;;;;;4937321;29;20315;-88
2021/01/02 01:29:04;;;;;;;94.23;30.73;;;-0.90;99.90;;;;;;4937558;29;20178;-89
2021/01/02 01:31:57;;;;;;;72.47;24.27;;;-0.80;99.90;;;;;;4920271;29;20206;-89
2021/01/02 01:34:25;;;;;;;99.60;24.33;;;-0.80;99.90;;;;;;4917544;29;20702;-89
2021/01/02 01:36:51;;;;;;;88.20;31.93;;;-0.50;99.90;;;;;;4937751;29;20215;-88
2021/01/02 01:39:20;;;;;;;111.70;30.93;;;-0.30;99.90;;;;;;4937357;29;20226;-87
2021/01/02 01:41:51;;;;;;;88.40;27.37;;;-0.70;99.90;;;;;;4937587;29;20630;-87
2021/01/02 01:44:44;;;;;;;101.17;28.83;;;-0.50;99.90;;;;;;4920690;29;20201;-89
2021/01/02 01:47:16;;;;;;;84.33;25.23;;;-0.60;99.90;;;;;;4920392;29;20186;-88
2021/01/02 01:49:57;;;;;;;82.43;28.63;;;0.70;99.90;;;;;;4937420;29;20165;-87
2021/01/02 01:52:51;;;;;;;95.70;27.43;;;0.30;99.90;;;;;;4919875;29;20216;-88
2021/01/02 01:55:29;;;;;;;87.30;24.87;;;-0.60;99.90;;;;;;4919552;29;20655;-90
2021/01/02 01:58:09;;;;;;;78.37;25.77;;;-0.60;99.90;;;;;;4920262;29;20646;-89
2021/01/02 02:00:43;;;;;;;86.57;29.73;;;-0.60;99.90;;;;;;4919815;29;20237;-89
2021/01/02 02:03:20;;;;;;;83.73;27.07;;;-0.50;99.90;;;;;;4919827;29;20528;-89
2021/01/02 02:05:53;;;;;;;86.37;30.67;;;0.90;99.90;;;;;;4960786;28;20263;-88
2021/01/02 02:08:40;;;;;;;103.07;30.97;;;0.70;99.90;;;;;;4935361;29;20191;-88
2021/01/02 02:11:13;;;;;;;112.13;27.90;;;0.40;99.90;;;;;;4936921;29;20180;-88
2021/01/02 02:13:49;;;;;;;98.13;29.67;;;0.90;99.90;;;;;;4936744;29;20578;-88
2021/01/02 02:16:21;;;;;;;100.30;31.90;;;0.50;99.90;;;;;;4936989;29;20182;-89
2021/01/02 02:18:56;;;;;;;92.03;29.37;;;0.60;99.90;;;;;;4936772;29;20178;-87
2021/01/02 02:21:27;;;;;;;73.70;24.90;;;0.90;99.90;;;;;;4935323;29;20186;-87
2021/01/02 02:24:00;;;;;;;83.80;28.33;;;1.00;99.90;;;;;;4936699;29;20228;-87
2021/01/02 02:26:33;;;;;;;87.17;30.00;;;-0.40;99.90;;;;;;4936318;29;20183;-87
2021/01/02 02:29:22;;;;;;;77.40;28.47;;;-0.40;99.90;;;;;;4967099;28;20216;-88
2021/01/02 02:31:49;;;;;;;79.30;25.47;;;-0.30;99.90;;;;;;4936700;29;20187;-87
2021/01/02 02:34:15;;;;;;;90.60;27.30;;;0.50;99.90;;;;;;4935537;29;20181;-88
2021/01/02 02:36:42;;;;;;;81.13;27.40;;;-0.40;99.90;;;;;;4934775;29;20704;-87
2021/01/02 02:39:12;;;;;;;86.30;26.93;;;-0.40;99.90;;;;;;4936464;29;20185;-87
2021/01/02 02:41:46;;;;;;;67.67;27.27;;;-0.50;99.90;;;;;;4935769;29;20202;-88
2021/01/02 02:44:16;;;;;;;81.57;24.83;;;-0.50;99.90;;;;;;4967259;28;20687;-87
2021/01/02 02:46:45;;;;;;;72.83;25.00;;;-0.20;99.90;;;;;;4934796;29;20292;-88
2021/01/02 02:49:14;;;;;;;78.43;27.63;;;-0.60;99.90;;;;;;4936104;29;20189;-87
2021/01/02 02:52:07;;;;;;;78.53;28.67;;;-0.60;99.90;;;;;;4935932;29;20200;-87
2021/01/02 02:54:32;;;;;;;69.73;26.00;;;0.00;99.90;;;;;;4917904;29;20192;-88
2021/01/02 02:56:58;;;;;;;88.07;27.50;;;-0.50;99.90;;;;;;4966582;28;20245;-87
2021/01/02 02:59:24;;;;;;;83.10;27.10;;;-0.40;99.90;;;;;;4935841;29;20178;-87
2021/01/02 03:01:49;;;;;;;90.97;27.07;;;-0.40;99.90;;;;;;4935776;29;20206;-87
2021/01/02 03:04:16;;;;;;;70.70;24.27;;;-0.40;99.90;;;;;;4935415;29;20223;-86
2021/01/02 03:06:42;;;;;;;93.87;23.80;;;0.80;99.90;;;;;;4934770;29;20182;-87
2021/01/02 03:09:12;;;;;;;74.23;23.60;;;0.60;99.90;;;;;;4918320;29;20536;-87
2021/01/02 03:11:41;;;;;;;83.40;23.77;;;-0.60;99.90;;;;;;4934066;29;20214;-87
2021/01/02 03:14:06;;;;;;;90.60;24.20;;;0.80;99.90;;;;;;4935126;29;20278;-87
2021/01/02 03:16:32;;;;;;;73.00;22.37;;;-0.70;99.90;;;;;;4917830;29;20217;-88
2021/01/02 03:18:58;;;;;;;85.90;24.77;;;-0.70;99.90;;;;;;4934823;29;20267;-87
2021/01/02 03:21:24;;;;;;;84.20;24.13;;;0.80;99.90;;;;;;4918024;29;20258;-87
2021/01/02 03:23:50;;;;;;;72.63;22.30;;;1.20;99.90;;;;;;4917838;29;20701;-86
2021/01/02 03:26:16;;;;;;;71.50;23.77;;;0.50;99.90;;;;;;4935069;29;20192;-86
2021/01/02 03:28:51;;;;;;;65.33;23.57;;;-0.80;99.90;;;;;;4934885;29;20635;-86
2021/01/02 03:31:18;;;;;;;64.30;22.33;;;-0.70;99.90;;;;;;4917832;29;20550;-86
2021/01/02 03:33:44;;;;;;;78.47;23.37;;;-0.80;99.90;;;;;;4934296;29;20191;-87
2021/01/02 03:36:10;;;;;;;60.43;21.20;;;-0.80;99.90;;;;;;4901675;29;20513;-87
2021/01/02 03:38:37;;;;;;;84.20;25.10;;;-0.80;99.90;;;;;;4933807;29;20191;-87
2021/01/02 03:41:03;;;;;;;65.03;24.37;;;-0.70;99.90;;;;;;4933795;29;20197;-88
2021/01/02 03:43:28;;;;;;;74.83;24.33;;;0.30;99.90;;;;;;4916941;29;20684;-88
2021/01/02 03:45:55;;;;;;;78.87;24.60;;;1.10;99.90;;;;;;4919045;29;20274;-88
2021/01/02 03:48:21;;;;;;;81.37;25.03;;;-0.70;99.90;;;;;;4937513;29;20252;-87
2021/01/02 03:50:47;;;;;;;80.97;25.30;;;-0.80;99.90;;;;;;4937856;29;20188;-87
2021/01/02 03:53:12;;;;;;;90.83;28.43;;;1.60;99.90;;;;;;4920826;29;20273;-87
2021/01/02 03:55:40;;;;;;;78.63;28.50;;;-0.80;99.90;;;;;;4920137;29;20555;-88
2021/01/02 03:58:06;;;;;;;75.37;26.67;;;-0.40;99.90;;;;;;4905022;29;20196;-89
2021/01/02 04:00:32;;;;;;;68.97;25.17;;;-0.70;99.90;;;;;;4937650;29;20190;-89
2021/01/02 04:02:58;;;;;;;58.63;24.30;;;-0.10;99.90;;;;;;4921096;29;20216;-87
2021/01/02 04:05:23;;;;;;;58.27;25.30;;;-0.80;99.90;;;;;;4905805;29;628862;-86
2021/01/02 04:07:49;;;;;;;76.30;27.63;;;0.50;99.90;;;;;;4969593;28;20195;-86
2021/01/02 04:10:14;;;;;;;69.27;25.73;;;-0.70;99.90;;;;;;4954140;28;20652;-87
2021/01/02 04:12:40;;;;;;;89.90;26.03;;;-0.60;99.90;;;;;;4938836;29;20185;-88
2021/01/02 04:15:06;;;;;;;76.57;27.57;;;-0.60;99.90;;;;;;4953407;28;20198;-87
2021/01/02 04:17:32;;;;;;;63.13;26.70;;;-0.60;99.90;;;;;;4921840;29;20186;-91
2021/01/02 04:19:58;;;;;;;72.80;26.77;;;-0.40;99.90;;;;;;4921980;29;20178;-86
2021/01/02 04:22:23;;;;;;;83.40;30.97;;;-0.50;99.90;;;;;;4937928;29;20320;-85
2021/01/02 04:24:49;;;;;;;95.23;33.97;;;-0.40;99.90;;;;;;4937504;29;20223;-86
2021/01/02 04:27:14;;;;;;;79.63;31.03;;;0.80;99.90;;;;;;4938731;29;20263;-87
2021/01/02 04:29:40;;;;;;;76.13;31.37;;;0.00;99.90;;;;;;4921894;29;20188;-87
2021/01/02 04:32:06;;;;;;;85.37;31.90;;;-0.50;99.90;;;;;;4937738;29;20187;-87
2021/01/02 04:34:32;;;;;;;137.87;46.93;;;-0.50;99.90;;;;;;4938913;29;20179;-86
2021/01/02 04:36:58;;;;;;;108.90;44.53;;;0.40;99.90;;;;;;4937790;29;20181;-87
2021/01/02 04:39:23;;;;;;;104.33;43.43;;;0.00;99.90;;;;;;4937886;29;20305;-88
2021/01/02 04:41:49;;;;;;;115.40;48.53;;;-0.40;99.90;;;;;;4937564;29;20184;-87
2021/01/02 04:44:17;;;;;;;71.67;27.27;;;1.90;99.90;;;;;;4969606;28;20722;-87
2021/01/02 04:46:45;;;;;;;66.37;26.73;;;1.50;99.90;;;;;;4938917;29;20182;-88
2021/01/02 04:49:11;;;;;;;80.63;26.87;;;0.80;99.90;;;;;;4938941;29;20181;-88
2021/01/02 04:51:36;;;;;;;82.93;28.50;;;0.70;99.90;;;;;;4936929;29;20237;-89
2021/01/02 04:54:04;;;;;;;91.73;27.47;;;0.30;99.90;;;;;;4938394;29;20187;-88
2021/01/02 04:56:35;;;;;;;89.33;28.50;;;-0.40;99.90;;;;;;4920568;29;20203;-88
2021/01/02 04:59:02;;;;;;;76.10;28.20;;;-0.50;99.90;;;;;;4938175;29;20172;-89
2021/01/02 05:01:29;;;;;;;77.97;26.77;;;1.20;99.90;;;;;;4938093;29;20185;-89
2021/01/02 05:03:55;;;;;;;83.67;29.33;;;0.90;99.90;;;;;;4968766;28;20211;-89
2021/01/02 05:06:23;;;;;;;73.53;28.60;;;0.20;99.90;;;;;;4936980;29;20270;-90
2021/01/02 05:08:50;;;;;;;76.37;27.77;;;-0.40;99.90;;;;;;4938319;29;20180;-88
2021/01/02 05:11:18;;;;;;;78.97;28.50;;;-0.10;99.90;;;;;;4938206;29;20192;-87
2021/01/02 05:13:44;;;;;;;87.47;29.70;;;-0.30;99.90;;;;;;4937806;29;20197;-88
2021/01/02 05:16:15;;;;;;;76.70;27.80;;;1.90;99.90;;;;;;4937835;29;20180;-88
2021/01/02 05:19:08;;;;;;;84.13;28.53;;;0.80;99.90;;;;;;4938122;29;20183;-89
2021/01/02 05:21:36;;;;;;;78.40;28.67;;;1.30;99.90;;;;;;4937016;29;20180;-88
2021/01/02 05:24:12;;;;;;;79.50;26.60;;;0.10;99.90;;;;;;4936554;29;20570;-88
2021/01/02 05:26:52;;;;;;;60.73;20.77;;;-0.50;99.90;;;;;;4922085;29;20195;-89
2021/01/02 05:29:23;;;;;;;76.33;27.20;;;-0.60;99.90;;;;;;4938160;29;20177;-88
2021/01/02 05:31:49;;;;;;;84.87;28.27;;;-0.60;99.90;;;;;;4936434;29;20686;-89
2021/01/02 05:34:25;;;;;;;87.10;27.73;;;0.90;99.90;;;;;;4947758;29;20187;-85
2021/01/02 05:37:05;;;;;;;95.70;30.07;;;-0.50;99.90;;;;;;4949267;29;20168;-85
2021/01/02 05:39:50;;;;;;;85.40;31.50;;;-0.50;99.90;;;;;;4949490;29;20177;-84
2021/01/02 05:42:17;;;;;;;79.40;28.70;;;0.90;99.90;;;;;;4979961;28;20287;-86
2021/01/02 05:44:43;;;;;;;63.60;23.97;;;0.20;99.90;;;;;;4937546;29;20219;-89
2021/01/02 05:47:20;;;;;;;86.40;24.40;;;-0.50;99.90;;;;;;4937390;29;20273;-89
2021/01/02 05:49:50;;;;;;;73.33;24.77;;;0.30;99.90;;;;;;4949533;29;20172;-90
2021/01/02 05:52:16;;;;;;;71.77;25.23;;;1.40;99.90;;;;;;4948710;29;20208;-86
2021/01/02 05:54:51;;;;;;;80.23;26.33;;;0.90;99.90;;;;;;4949605;29;20199;-84
2021/01/02 05:57:28;;;;;;;78.17;26.77;;;-0.50;99.90;;;;;;4940671;29;20176;-86
2021/01/02 05:59:58;;;;;;;86.50;30.53;;;-0.40;99.90;;;;;;4935860;29;20634;-87
2021/01/02 06:02:37;;;;;;;89.03;27.20;;;0.70;99.90;;;;;;4937155;29;20212;-87
2021/01/02 06:05:07;;;;;;;86.57;28.67;;;-0.40;99.90;;;;;;4936188;29;20240;-87
2021/01/02 06:07:36;;;;;;;72.90;23.23;;;-0.50;99.90;;;;;;4936854;29;20171;-87
2021/01/02 06:10:06;;;;;;;83.43;25.90;;;-0.50;99.90;;;;;;4919542;29;20223;-87
2021/01/02 06:12:37;;;;;;;92.83;29.10;;;-0.60;99.90;;;;;;4936628;29;20267;-87
2021/01/02 06:15:08;;;;;;;83.90;30.00;;;1.00;99.90;;;;;;4919765;29;20216;-86
2021/01/02 06:17:38;;;;;;;73.47;26.67;;;-0.50;99.90;;;;;;4937028;29;20160;-86
2021/01/02 06:20:09;;;;;;;93.90;29.97;;;-0.50;99.90;;;;;;4936805;29;20168;-88
2021/01/02 06:22:36;;;;;;;76.10;27.90;;;-0.50;99.90;;;;;;4937026;29;20244;-88
2021/01/02 06:25:04;;;;;;;95.47;29.20;;;-0.50;99.90;;;;;;4936574;29;20207;-88
2021/01/02 06:27:29;;;;;;;94.80;27.97;;;-0.50;99.90;;;;;;4936816;29;20184;-88
2021/01/02 06:29:57;;;;;;;96.50;31.10;;;-0.50;99.90;;;;;;4919387;29;20195;-88
2021/01/02 06:32:25;;;;;;;96.90;36.97;;;-0.50;99.90;;;;;;4936596;29;20181;-88
2021/01/02 06:35:06;;;;;;;88.73;30.63;;;0.40;99.90;;;;;;4903714;29;20192;-90
2021/01/02 06:37:47;;;;;;;111.87;40.97;;;0.80;99.90;;;;;;4919718;29;20190;-87
2021/01/02 06:40:19;;;;;;;99.80;35.07;;;1.10;99.90;;;;;;4919336;29;20637;-87
2021/01/02 06:43:03;;;;;;;91.10;33.80;;;-0.40;99.90;;;;;;4936626;29;20190;-87
2021/01/02 06:45:37;;;;;;;83.33;31.93;;;-0.40;99.90;;;;;;4936600;29;20222;-87
2021/01/02 06:48:24;;;;;;;77.47;29.40;;;1.10;99.90;;;;;;4919138;29;20195;-88
2021/01/02 06:51:01;;;;;;;70.07;25.03;;;-0.40;99.90;;;;;;4919595;29;20188;-88
2021/01/02 06:53:37;;;;;;;78.27;34.07;;;-0.50;99.90;;;;;;4936582;29;20261;-87
2021/01/02 06:56:10;;;;;;;102.67;43.17;;;-0.40;99.90;;;;;;4936158;29;20655;-87
2021/01/02 06:58:37;;;;;;;96.23;39.10;;;-0.40;99.90;;;;;;4936149;29;20244;-85
2021/01/02 07:01:23;;;;;;;111.77;43.10;;;-0.30;99.90;;;;;;4938107;29;20188;-86
2021/01/02 07:03:50;;;;;;;106.80;43.70;;;-0.40;99.90;;;;;;4906564;29;20252;-90
2021/01/02 07:06:24;;;;;;;94.77;40.30;;;-0.30;99.90;;;;;;4912748;29;20633;-87
2021/01/02 07:08:55;;;;;;;71.67;30.77;;;-0.20;99.90;;;;;;4917182;29;20631;-85
2021/01/02 07:11:43;;;;;;;78.57;31.13;;;-0.20;99.90;;;;;;4917537;29;20172;-86
2021/01/02 07:14:11;;;;;;;78.70;35.20;;;-0.20;99.90;;;;;;4928817;29;20200;-87
2021/01/02 07:16:58;;;;;;;89.37;39.13;;;-0.20;99.90;;;;;;4935090;29;20193;-88
2021/01/02 07:19:24;;;;;;;84.23;30.40;;;1.40;99.90;;;;;;4938993;29;20185;-88
2021/01/02 07:22:08;;;;;;;77.30;30.90;;;0.00;99.90;;;;;;4953999;29;20212;-87
2021/01/02 07:24:52;;;;;;;76.60;30.10;;;-0.10;99.90;;;;;;4954342;29;20586;-86
2021/01/02 07:27:23;;;;;;;72.50;28.20;;;0.00;99.90;;;;;;4955456;29;20175;-87
2021/01/02 07:29:54;;;;;;;89.47;38.00;;;0.00;99.90;;;;;;4954849;28;20170;-87
2021/01/02 07:32:27;;;;;;;74.27;33.10;;;0.50;99.90;;;;;;4969306;28;20265;-85
2021/01/02 07:35:00;;;;;;;79.13;29.77;;;-0.10;99.90;;;;;;4953893;29;20179;-87
2021/01/02 07:37:29;;;;;;;68.93;29.97;;;1.60;99.90;;;;;;4954881;28;20398;-87
2021/01/02 07:39:59;;;;;;;144.63;48.77;;;1.00;99.90;;;;;;4954531;28;20175;-86
2021/01/02 07:42:28;;;;;;;172.07;59.67;;;0.00;99.90;;;;;;4953501;29;20666;-87
2021/01/02 07:44:59;;;;;;;178.53;71.33;;;0.10;99.90;;;;;;4954954;28;20207;-87
2021/01/02 07:47:24;;;;;;;345.10;101.17;;;1.90;99.90;;;;;;4953639;29;20179;-87
2021/01/02 07:49:58;;;;;;;250.87;80.43;;;0.40;99.90;;;;;;4953909;29;20182;-88
2021/01/02 07:52:24;;;;;;;255.47;86.77;;;2.20;99.90;;;;;;4954765;28;20609;-86
2021/01/02 07:54:49;;;;;;;220.63;77.33;;;1.20;99.90;;;;;;4955064;28;20190;-86
2021/01/02 07:57:25;;;;;;;142.57;53.63;;;1.90;99.90;;;;;;4937363;29;20184;-89
2021/01/02 07:59:54;;;;;;;110.30;43.07;;;0.30;99.90;;;;;;4952518;29;20191;-89
2021/01/02 08:02:24;;;;;;;95.17;40.67;;;0.40;99.90;;;;;;4952025;29;20277;-87
2021/01/02 08:04:52;;;;;;;94.13;39.57;;;0.60;99.90;;;;;;4951921;28;20292;-86
2021/01/02 08:07:18;;;;;;;131.97;56.17;;;0.70;99.90;;;;;;4954577;28;20201;-87
2021/01/02 08:09:45;;;;;;;133.33;55.97;;;0.50;99.90;;;;;;4952816;29;20203;-88
2021/01/02 08:12:12;;;;;;;143.53;59.53;;;0.50;99.90;;;;;;4947875;28;20187;-89
2021/01/02 08:14:43;;;;;;;167.23;64.57;;;0.50;99.90;;;;;;4949830;28;20192;-87
2021/01/02 08:17:10;;;;;;;123.43;53.57;;;0.60;99.90;;;;;;4942641;28;20183;-87
2021/01/02 08:19:48;;;;;;;115.60;47.73;;;2.10;99.90;;;;;;4934513;29;20318;-87
2021/01/02 08:25:53;;;;;;;120.10;48.80;;;1.00;99.90;;;;;;4923029;29;20526;-90
2021/01/02 08:28:19;;;;;;;111.50;50.47;;;0.60;99.90;;;;;;4938358;29;20180;-91
2021/01/02 08:30:47;;;;;;;119.60;50.33;;;-0.70;99.90;;;;;;4935551;29;20180;-90
2021/01/02 08:33:15;;;;;;;151.70;63.43;;;0.60;99.90;;;;;;4937843;29;20180;-88
2021/01/02 08:35:45;;;;;;;220.37;88.30;;;0.90;99.90;;;;;;4937365;29;20218;-90
2021/01/02 08:38:13;;;;;;;171.43;70.93;;;1.10;99.90;;;;;;4937612;29;20184;-93
2021/01/02 08:40:49;;;;;;;165.00;71.00;;;-0.20;99.90;;;;;;4937438;29;20184;-92
2021/01/02 08:43:27;;;;;;;153.17;63.07;;;3.50;99.90;;;;;;4937474;29;20513;-92
2021/01/02 08:46:01;;;;;;;138.33;61.13;;;3.80;99.90;;;;;;4922038;29;20333;-91
2021/01/02 08:48:27;;;;;;;159.07;62.30;;;1.20;99.90;;;;;;4937220;29;20195;-91
2021/01/02 08:50:56;;;;;;;168.20;66.57;;;0.80;99.90;;;;;;4921474;29;20188;-92
2021/01/02 08:53:25;;;;;;;193.97;76.93;;;2.80;99.90;;;;;;4937358;29;20180;-92
2021/01/02 08:55:51;;;;;;;170.77;70.07;;;1.80;99.90;;;;;;4937615;29;20200;-91
2021/01/02 08:58:32;;;;;;;121.00;51.37;;;2.00;99.90;;;;;;4938190;29;20231;-92
2021/01/02 09:00:58;;;;;;;168.27;61.57;;;1.50;99.90;;;;;;4936817;29;20198;-91
2021/01/02 09:03:24;;;;;;;168.20;64.93;;;3.80;99.90;;;;;;4921206;29;20641;-91
2021/01/02 09:05:50;;;;;;;146.83;61.30;;;1.10;99.90;;;;;;4938859;29;20223;-91
2021/01/02 09:08:19;;;;;;;151.03;68.00;;;3.40;99.90;;;;;;4905780;29;20184;-93
2021/01/02 09:10:47;;;;;;;153.80;65.07;;;1.50;99.90;;;;;;4921592;29;20271;-92
2021/01/02 09:13:23;;;;;;;165.03;70.07;;;1.30;99.90;;;;;;4937928;29;20176;-94
2021/01/02 09:15:50;;;;;;;185.63;75.17;;;3.80;99.90;;;;;;4921326;29;20654;-92
2021/01/02 09:18:34;;;;;;;158.37;64.70;;;2.40;99.90;;;;;;4937995;29;20238;-93
2021/01/02 09:21:06;;;;;;;140.97;57.97;;;1.40;99.90;;;;;;4921167;29;20184;-91
2021/01/02 09:23:39;;;;;;;135.90;58.33;;;3.20;99.90;;;;;;4920716;29;20190;-91
2021/01/02 09:26:20;;;;;;;139.40;59.27;;;0.30;99.90;;;;;;4921561;29;20211;-92
2021/01/02 09:28:50;;;;;;;145.53;60.10;;;2.10;99.90;;;;;;4921399;29;20187;-94
2021/01/02 09:31:17;;;;;;;144.53;59.80;;;-0.50;99.90;;;;;;4938421;29;20176;-90
2021/01/02 09:33:43;;;;;;;143.87;60.60;;;;;;;;;;4921058;29;20187;-92
2021/01/02 09:36:12;;;;;;;145.43;57.90;;;1.40;99.90;;;;;;4921377;29;20637;-95
2021/01/02 09:38:38;;;;;;;181.80;60.40;;;1.40;99.90;;;;;;4938576;29;20180;-94
2021/01/02 09:41:04;;;;;;;172.33;63.10;;;;;;;;;;4922119;29;20203;-93
2021/01/02 09:43:30;;;;;;;162.43;63.53;;;1.40;99.90;;;;;;4920112;29;20188;-93
2021/01/02 09:45:56;;;;;;;194.03;73.73;;;1.40;99.90;;;;;;4921012;29;20182;-92
2021/01/02 09:48:22;;;;;;;172.67;69.97;;;;;;;;;;4921121;29;20210;-91
2021/01/02 09:50:48;;;;;;;191.53;73.97;;;;;;;;;;4904901;29;20188;-93
2021/01/02 09:53:14;;;;;;;231.53;80.70;;;1.60;99.90;;;;;;4905112;29;20202;-92
2021/01/02 09:55:41;;;;;;;229.37;77.87;;;;;;;;;;4920774;29;20287;-91
2021/01/02 09:58:07;;;;;;;210.97;75.13;;;;;;;;;;4943014;29;20185;-90
2021/01/02 10:00:32;;;;;;;220.83;78.63;;;1.70;99.90;;;;;;4938011;29;20235;-91
2021/01/02 10:02:59;;;;;;;191.87;72.83;;;2.10;99.90;;;;;;4904861;29;20184;-91
2021/01/02 10:05:27;;;;;;;185.37;65.07;;;2.40;99.90;;;;;;4926439;29;20243;-88
2021/01/02 10:07:54;;;;;;;211.57;74.23;;;3.80;99.90;;;;;;4937533;29;20188;-88
2021/01/02 10:10:20;;;;;;;235.47;90.40;;;;;;;;;;4936667;29;20207;-90
2021/01/02 10:12:47;;;;;;;233.93;93.17;;;1.90;99.90;;;;;;4920651;29;20184;-94
2021/01/02 10:15:15;;;;;;;246.63;91.87;;;2.00;99.90;;;;;;4936258;29;20730;-90
2021/01/02 10:17:41;;;;;;;195.63;80.47;;;;;;;;;;4935789;29;20271;-90
2021/01/02 10:20:09;;;;;;;207.80;77.83;;;2.10;99.90;;;;;;4936415;29;20191;-90
2021/01/02 10:22:35;;;;;;;186.07;75.80;;;2.10;99.90;;;;;;4935617;29;20187;-91
2021/01/02 10:25:01;;;;;;;187.87;75.63;;;;;;;;;;4919942;29;20204;-91
2021/01/02 10:27:29;;;;;;;177.87;75.63;;;2.30;99.90;;;;;;4935637;29;20198;-92
2021/01/02 10:29:57;;;;;;;156.60;63.53;;;2.40;99.90;;;;;;4937251;29;20231;-93
2021/01/02 10:32:28;;;;;;;145.90;65.73;;;2.30;99.90;;;;;;4919633;29;20184;-93
2021/01/02 10:34:54;;;;;;;137.40;64.20;;;;;;;;;;4935924;29;20190;-93
2021/01/02 10:37:25;;;;;;;145.17;64.30;;;2.50;99.90;;;;;;4936068;29;20196;-91
2021/01/02 10:39:51;;;;;;;141.53;65.93;;;;;;;;;;4936104;29;20194;-91
2021/01/02 10:42:21;;;;;;;160.13;68.97;;;2.50;99.90;;;;;;4936810;29;20551;-92
2021/01/02 10:44:50;;;;;;;166.83;74.50;;;;;;;;;;4936792;29;20247;-91
2021/01/02 10:47:21;;;;;;;172.80;77.57;;;2.70;99.90;;;;;;4935523;29;20638;-91
2021/01/02 10:49:48;;;;;;;149.13;70.30;;;2.70;99.90;;;;;;4935640;29;20641;-90
2021/01/02 10:52:20;;;;;;;196.87;81.93;;;2.70;99.90;;;;;;4922263;29;20187;-91
2021/01/02 10:54:48;;;;;;;150.10;70.17;;;2.80;99.90;;;;;;4950728;28;20187;-91
2021/01/02 10:57:19;;;;;;;173.53;75.50;;;3.70;99.90;;;;;;4936370;29;20192;-91
2021/01/02 10:59:46;;;;;;;177.83;75.83;;;2.80;99.90;;;;;;4939021;28;20188;-90
2021/01/02 11:02:15;;;;;;;184.23;78.73;;;2.90;99.90;;;;;;4954180;28;20227;-91
2021/01/02 11:04:42;;;;;;;188.00;77.03;;;2.90;99.90;;;;;;4952057;28;20211;-90
2021/01/02 11:07:10;;;;;;;201.53;82.00;;;2.90;99.90;;;;;;4936870;29;20318;-91
2021/01/02 11:09:36;;;;;;;211.37;87.37;;;2.90;99.90;;;;;;4935264;29;20188;-90
2021/01/02 11:12:02;;;;;;;195.97;85.33;;;0.80;99.90;;;;;;4903762;29;20184;-91
2021/01/02 11:14:31;;;;;;;177.30;76.97;;;2.90;99.90;;;;;;4919416;29;20188;-92
2021/01/02 11:16:57;;;;;;;142.83;63.53;;;;;;;;;;4935232;29;20187;-90
2021/01/02 11:19:28;;;;;;;154.57;65.50;;;3.10;99.90;;;;;;4937112;29;20213;-90
2021/01/02 11:22:00;;;;;;;151.27;68.93;;;3.10;99.90;;;;;;4938499;29;20203;-91
2021/01/02 11:24:28;;;;;;;144.97;67.80;;;3.20;99.90;;;;;;4938382;29;20219;-91
2021/01/02 11:27:00;;;;;;;151.17;71.57;;;3.20;99.90;;;;;;4924225;29;20268;-89
2021/01/02 11:29:29;;;;;;;145.93;68.03;;;3.30;99.90;;;;;;4936407;29;20165;-89
2021/01/02 11:31:55;;;;;;;145.83;66.87;;;3.90;99.90;;;;;;4919137;29;20184;-90
2021/01/02 11:34:22;;;;;;;138.23;64.93;;;3.30;99.90;;;;;;4903491;29;20660;-89
2021/01/02 11:36:50;;;;;;;145.73;67.37;;;4.00;99.90;;;;;;4903702;29;20191;-91
2021/01/02 11:39:16;;;;;;;148.07;66.57;;;3.50;99.90;;;;;;4919938;29;20636;-91
2021/01/02 11:41:42;;;;;;;133.10;62.27;;;3.10;99.90;;;;;;4903645;29;20290;-90
2021/01/02 11:44:11;;;;;;;137.83;65.47;;;5.80;99.90;;;;;;4919283;29;20301;-92
2021/01/02 11:46:42;;;;;;;129.07;63.43;;;3.60;99.90;;;;;;4938868;29;20194;-91
2021/01/02 11:49:09;;;;;;;128.37;62.00;;;3.90;99.90;;;;;;4929336;29;20214;-88
2021/01/02 11:51:39;;;;;;;143.03;66.67;;;4.00;99.90;;;;;;4949338;29;20641;-88
2021/01/02 11:54:05;;;;;;;127.53;59.40;;;4.20;99.90;;;;;;4967320;28;20635;-88
2021/01/02 11:56:31;;;;;;;132.77;66.53;;;;;;;;;;4951065;29;20181;-91
2021/01/02 11:59:01;;;;;;;133.60;65.50;;;5.00;99.90;;;;;;4956217;28;20217;-93
2021/01/02 12:01:44;;;;;;;117.97;58.57;;;5.00;99.90;;;;;;4926827;29;20265;-89
2021/01/02 12:04:13;;;;;;;108.80;53.73;;;5.70;99.90;;;;;;4932721;29;20223;-87
2021/01/02 12:06:39;;;;;;;93.43;46.23;;;6.30;99.90;;;;;;4938517;29;20262;-90
2021/01/02 12:09:08;;;;;;;95.47;45.60;;;6.70;99.90;;;;;;4957166;29;20187;-92
2021/01/02 12:11:38;;;;;;;81.17;40.13;;;7.10;99.90;;;;;;4939844;29;20333;-94
2021/01/02 12:14:06;;;;;;;73.07;38.00;;;7.10;99.90;;;;;;4950835;29;20188;-94
2021/01/02 12:16:40;;;;;;;60.40;31.07;;;7.20;99.90;;;;;;4956831;28;20191;-92
2021/01/02 12:19:11;;;;;;;50.33;25.37;;;7.30;99.90;;;;;;4941707;29;20270;-93
2021/01/02 12:21:38;;;;;;;40.67;21.43;;;7.40;99.90;;;;;;4939210;29;20172;-92
2021/01/02 12:24:05;;;;;;;44.63;21.37;;;7.10;99.90;;;;;;4937859;29;20295;-93
2021/01/02 12:26:31;;;;;;;31.00;17.57;;;7.10;99.90;;;;;;4922557;29;20184;-93
2021/01/02 12:28:56;;;;;;;31.60;17.63;;;7.40;99.90;;;;;;4939790;29;20183;-92
2021/01/02 12:31:27;;;;;;;33.20;18.10;;;7.60;99.90;;;;;;4952794;28;20188;-94
2021/01/02 12:33:54;;;;;;;37.93;18.80;;;7.40;99.90;;;;;;4939256;29;20219;-95
2021/01/02 12:36:35;;;;;;;37.63;16.90;;;7.10;99.90;;;;;;4938505;29;20588;-90
2021/01/02 12:39:01;;;;;;;33.00;18.20;;;7.10;99.90;;;;;;4943402;29;20179;-92
2021/01/02 12:41:27;;;;;;;30.30;15.77;;;6.90;99.90;;;;;;4938777;29;20180;-92
2021/01/02 12:43:53;;;;;;;35.33;16.27;;;6.70;99.90;;;;;;4937893;29;20223;-91
2021/01/02 12:46:21;;;;;;;39.67;18.93;;;6.30;99.90;;;;;;4940436;29;20274;-92
2021/01/02 12:48:49;;;;;;;35.30;17.37;;;6.20;99.90;;;;;;4937940;29;20195;-94
2021/01/02 12:51:20;;;;;;;28.67;16.50;;;6.10;99.90;;;;;;4954601;28;20202;-92
2021/01/02 12:53:48;;;;;;;38.57;18.63;;;6.00;99.90;;;;;;4946621;28;20183;-91
2021/01/02 12:56:18;;;;;;;34.57;17.20;;;5.90;99.90;;;;;;4938622;29;20192;-88